sensor_id;sensor_type;location;lat;lon;timestamp;pressure;altitude;pressure_sealevel;temperature
51561;BMP280;37654;51.262;17.058;2023-05-14T00:00:38;99983.78;;;13.41
51561;BMP280;37654;51.262;17.058;2023-05-14T00:03:03;99979.38;;;13.43
51561;BMP280;37654;51.262;17.058;2023-05-14T00:05:28;99979.41;;;13.41
51561;BMP280;37654;51.262;17.058;2023-05-14T00:07:54;99977.56;;;13.45
51561;BMP280;37654;51.262;17.058;2023-05-14T00:10:19;99971.50;;;13.46
51561;BMP280;37654;51.262;17.058;2023-05-14T00:12:46;99961.44;;;13.34
51561;BMP280;37654;51.262;17.058;2023-05-14T00:15:11;99971.97;;;13.30
51561;BMP280;37654;51.262;17.058;2023-05-14T00:17:37;99974.25;;;13.40
51561;BMP280;37654;51.262;17.058;2023-05-14T00:20:04;99957.28;;;13.27
51561;BMP280;37654;51.262;17.058;2023-05-14T00:22:32;99961.44;;;13.34
51561;BMP280;37654;51.262;17.058;2023-05-14T00:24:57;99966.00;;;13.26
51561;BMP280;37654;51.262;17.058;2023-05-14T00:27:23;99965.63;;;13.38
51561;BMP280;37654;51.262;17.058;2023-05-14T00:29:48;99963.88;;;13.40
51561;BMP280;37654;51.262;17.058;2023-05-14T00:32:14;99965.47;;;13.44
51561;BMP280;37654;51.262;17.058;2023-05-14T00:34:39;99965.38;;;13.47
51561;BMP280;37654;51.262;17.058;2023-05-14T00:37:05;99964.34;;;13.52
51561;BMP280;37654;51.262;17.058;2023-05-14T00:39:30;99966.81;;;13.57
51561;BMP280;37654;51.262;17.058;2023-05-14T00:41:56;99962.41;;;13.59
51561;BMP280;37654;51.262;17.058;2023-05-14T00:44:21;99968.19;;;13.68
51561;BMP280;37654;51.262;17.058;2023-05-14T00:46:47;99966.19;;;13.76
51561;BMP280;37654;51.262;17.058;2023-05-14T00:49:13;99969.56;;;13.79
51561;BMP280;37654;51.262;17.058;2023-05-14T00:51:39;99967.34;;;13.68
51561;BMP280;37654;51.262;17.058;2023-05-14T00:54:06;99965.19;;;13.81
51561;BMP280;37654;51.262;17.058;2023-05-14T00:56:31;99958.16;;;13.83
51561;BMP280;37654;51.262;17.058;2023-05-14T00:58:58;99966.91;;;13.81
51561;BMP280;37654;51.262;17.058;2023-05-14T01:01:23;99964.25;;;13.82
51561;BMP280;37654;51.262;17.058;2023-05-14T01:03:52;99955.72;;;13.77
51561;BMP280;37654;51.262;17.058;2023-05-14T01:09:02;99956.13;;;13.93
51561;BMP280;37654;51.262;17.058;2023-05-14T01:16:41;99953.06;;;13.52
51561;BMP280;37654;51.262;17.058;2023-05-14T01:21:53;99953.56;;;13.64
51561;BMP280;37654;51.262;17.058;2023-05-14T01:24:18;99950.72;;;13.71
51561;BMP280;37654;51.262;17.058;2023-05-14T01:26:44;99955.84;;;13.74
51561;BMP280;37654;51.262;17.058;2023-05-14T01:29:20;99952.25;;;13.78
51561;BMP280;37654;51.262;17.058;2023-05-14T01:31:46;99959.06;;;13.82
51561;BMP280;37654;51.262;17.058;2023-05-14T01:34:13;99943.16;;;13.64
51561;BMP280;37654;51.262;17.058;2023-05-14T01:36:41;99951.84;;;13.63
51561;BMP280;37654;51.262;17.058;2023-05-14T01:39:07;99945.88;;;13.60
51561;BMP280;37654;51.262;17.058;2023-05-14T01:41:35;99949.25;;;13.63
51561;BMP280;37654;51.262;17.058;2023-05-14T01:44:01;99951.28;;;13.54
51561;BMP280;37654;51.262;17.058;2023-05-14T01:46:31;99939.94;;;13.56
51561;BMP280;37654;51.262;17.058;2023-05-14T01:48:57;99950.72;;;13.71
51561;BMP280;37654;51.262;17.058;2023-05-14T01:51:22;99945.13;;;13.83
51561;BMP280;37654;51.262;17.058;2023-05-14T01:53:47;99945.22;;;13.80
51561;BMP280;37654;51.262;17.058;2023-05-14T01:56:13;99943.72;;;13.73
51561;BMP280;37654;51.262;17.058;2023-05-14T01:58:38;99934.75;;;13.56
51561;BMP280;37654;51.262;17.058;2023-05-14T02:01:04;99934.94;;;13.49
51561;BMP280;37654;51.262;17.058;2023-05-14T02:03:29;99935.41;;;13.34
51561;BMP280;37654;51.262;17.058;2023-05-14T02:05:55;99932.91;;;13.31
51561;BMP280;37654;51.262;17.058;2023-05-14T02:08:20;99939.16;;;13.26
51561;BMP280;37654;51.262;17.058;2023-05-14T02:10:46;99931.28;;;13.27
51561;BMP280;37654;51.262;17.058;2023-05-14T02:13:11;99935.84;;;13.21
51561;BMP280;37654;51.262;17.058;2023-05-14T02:15:37;99927.91;;;13.25
51561;BMP280;37654;51.262;17.058;2023-05-14T02:18:02;99927.66;;;13.33
51561;BMP280;37654;51.262;17.058;2023-05-14T02:20:27;99936.22;;;13.36
51561;BMP280;37654;51.262;17.058;2023-05-14T02:22:53;99927.44;;;13.40
51561;BMP280;37654;51.262;17.058;2023-05-14T02:25:18;99931.97;;;13.34
51561;BMP280;37654;51.262;17.058;2023-05-14T02:27:44;99925.97;;;13.32
51561;BMP280;37654;51.262;17.058;2023-05-14T02:30:10;99933.13;;;13.24
51561;BMP280;37654;51.262;17.058;2023-05-14T02:32:35;99937.34;;;13.28
51561;BMP280;37654;51.262;17.058;2023-05-14T02:35:01;99929.38;;;13.34
51561;BMP280;37654;51.262;17.058;2023-05-14T02:37:27;99932.25;;;13.25
51561;BMP280;37654;51.262;17.058;2023-05-14T02:39:53;99925.38;;;13.22
51561;BMP280;37654;51.262;17.058;2023-05-14T02:42:18;99921.56;;;13.34
51561;BMP280;37654;51.262;17.058;2023-05-14T02:44:44;99917.50;;;13.25
51561;BMP280;37654;51.262;17.058;2023-05-14T02:47:09;99919.47;;;13.17
51561;BMP280;37654;51.262;17.058;2023-05-14T02:49:34;99922.00;;;13.19
51561;BMP280;37654;51.262;17.058;2023-05-14T02:52:00;99920.22;;;13.21
51561;BMP280;37654;51.262;17.058;2023-05-14T02:54:25;99913.06;;;13.27
51561;BMP280;37654;51.262;17.058;2023-05-14T02:56:51;99927.97;;;13.22
51561;BMP280;37654;51.262;17.058;2023-05-14T02:59:16;99928.16;;;13.16
51561;BMP280;37654;51.262;17.058;2023-05-14T03:01:42;99921.34;;;13.13
51561;BMP280;37654;51.262;17.058;2023-05-14T03:04:07;99920.00;;;13.00
51561;BMP280;37654;51.262;17.058;2023-05-14T03:06:32;99910.53;;;12.97
51561;BMP280;37654;51.262;17.058;2023-05-14T03:08:58;99907.47;;;12.84
51561;BMP280;37654;51.262;17.058;2023-05-14T03:11:23;99907.53;;;12.81
51561;BMP280;37654;51.262;17.058;2023-05-14T03:13:49;99908.16;;;12.90
51561;BMP280;37654;51.262;17.058;2023-05-14T03:16:14;99911.97;;;12.77
51561;BMP280;37654;51.262;17.058;2023-05-14T03:18:40;99918.78;;;12.83
51561;BMP280;37654;51.262;17.058;2023-05-14T03:21:05;99914.41;;;12.83
51561;BMP280;37654;51.262;17.058;2023-05-14T03:23:32;99906.94;;;12.71
51561;BMP280;37654;51.262;17.058;2023-05-14T03:25:59;99907.94;;;12.66
51561;BMP280;37654;51.262;17.058;2023-05-14T03:28:25;99908.06;;;12.61
51561;BMP280;37654;51.262;17.058;2023-05-14T03:30:50;99916.59;;;12.66
51561;BMP280;37654;51.262;17.058;2023-05-14T03:33:16;99922.22;;;12.52
51561;BMP280;37654;51.262;17.058;2023-05-14T03:35:41;99921.16;;;12.58
51561;BMP280;37654;51.262;17.058;2023-05-14T03:38:07;99926.22;;;12.63
51561;BMP280;37654;51.262;17.058;2023-05-14T03:40:32;99908.88;;;12.63
51561;BMP280;37654;51.262;17.058;2023-05-14T03:42:58;99924.88;;;12.49
51561;BMP280;37654;51.262;17.058;2023-05-14T03:45:23;99923.19;;;12.46
51561;BMP280;37654;51.262;17.058;2023-05-14T03:47:48;99920.59;;;12.46
51561;BMP280;37654;51.262;17.058;2023-05-14T03:50:14;99912.94;;;12.42
51561;BMP280;37654;51.262;17.058;2023-05-14T03:52:39;99916.31;;;12.45
51561;BMP280;37654;51.262;17.058;2023-05-14T03:55:05;99918.06;;;12.45
51561;BMP280;37654;51.262;17.058;2023-05-14T03:57:31;99914.13;;;12.62
51561;BMP280;37654;51.262;17.058;2023-05-14T03:59:57;99913.09;;;12.67
51561;BMP280;37654;51.262;17.058;2023-05-14T04:02:22;99907.44;;;12.54
51561;BMP280;37654;51.262;17.058;2023-05-14T04:04:48;99908.03;;;12.31
51561;BMP280;37654;51.262;17.058;2023-05-14T04:07:13;99916.53;;;12.38
51561;BMP280;37654;51.262;17.058;2023-05-14T04:09:38;99916.19;;;12.50
51561;BMP280;37654;51.262;17.058;2023-05-14T04:12:04;99914.72;;;12.71
51561;BMP280;37654;51.262;17.058;2023-05-14T04:14:29;99919.03;;;12.72
51561;BMP280;37654;51.262;17.058;2023-05-14T04:16:55;99910.19;;;12.79
51561;BMP280;37654;51.262;17.058;2023-05-14T04:19:20;99910.19;;;12.79
51561;BMP280;37654;51.262;17.058;2023-05-14T04:21:46;99909.78;;;12.94
51561;BMP280;37654;51.262;17.058;2023-05-14T04:24:11;99906.88;;;13.03
51561;BMP280;37654;51.262;17.058;2023-05-14T04:26:36;99907.03;;;12.98
51561;BMP280;37654;51.262;17.058;2023-05-14T04:29:02;99908.34;;;13.13
51561;BMP280;37654;51.262;17.058;2023-05-14T04:31:28;99911.91;;;13.37
51561;BMP280;37654;51.262;17.058;2023-05-14T04:33:54;99911.09;;;13.64
51561;BMP280;37654;51.262;17.058;2023-05-14T04:36:19;99909.97;;;13.97
51561;BMP280;37654;51.262;17.058;2023-05-14T04:38:44;99917.88;;;13.95
51561;BMP280;37654;51.262;17.058;2023-05-14T04:41:10;99911.03;;;14.18
51561;BMP280;37654;51.262;17.058;2023-05-14T04:43:36;99903.66;;;14.54
51561;BMP280;37654;51.262;17.058;2023-05-14T04:46:01;99906.34;;;14.51
51561;BMP280;37654;51.262;17.058;2023-05-14T04:48:27;99903.91;;;14.47
51561;BMP280;37654;51.262;17.058;2023-05-14T04:50:52;99901.03;;;14.54
51561;BMP280;37654;51.262;17.058;2023-05-14T04:53:18;99897.34;;;14.83
51561;BMP280;37654;51.262;17.058;2023-05-14T04:55:43;99896.22;;;15.35
51561;BMP280;37654;51.262;17.058;2023-05-14T04:58:08;99899.06;;;15.52
51561;BMP280;37654;51.262;17.058;2023-05-14T05:00:34;99899.78;;;15.77
51561;BMP280;37654;51.262;17.058;2023-05-14T05:02:59;99892.25;;;15.48
51561;BMP280;37654;51.262;17.058;2023-05-14T05:05:25;99889.94;;;15.41
51561;BMP280;37654;51.262;17.058;2023-05-14T05:07:50;99897.44;;;15.27
51561;BMP280;37654;51.262;17.058;2023-05-14T05:10:16;99898.41;;;15.25
51561;BMP280;37654;51.262;17.058;2023-05-14T05:12:41;99892.56;;;15.62
51561;BMP280;37654;51.262;17.058;2023-05-14T05:15:07;99891.88;;;15.99
51561;BMP280;37654;51.262;17.058;2023-05-14T05:17:33;99893.72;;;16.18
51561;BMP280;37654;51.262;17.058;2023-05-14T05:19:59;99881.28;;;16.43
51561;BMP280;37654;51.262;17.058;2023-05-14T05:22:24;99883.34;;;16.74
51561;BMP280;37654;51.262;17.058;2023-05-14T05:24:50;99888.13;;;17.03
51561;BMP280;37654;51.262;17.058;2023-05-14T05:27:15;99890.09;;;16.80
51561;BMP280;37654;51.262;17.058;2023-05-14T05:29:42;99886.53;;;16.02
51561;BMP280;37654;51.262;17.058;2023-05-14T05:32:07;99872.41;;;15.87
51561;BMP280;37654;51.262;17.058;2023-05-14T05:34:33;99882.78;;;16.48
51561;BMP280;37654;51.262;17.058;2023-05-14T05:36:59;99883.66;;;17.61
51561;BMP280;37654;51.262;17.058;2023-05-14T05:39:24;99883.09;;;17.36
51561;BMP280;37654;51.262;17.058;2023-05-14T05:41:49;99875.75;;;17.08
51561;BMP280;37654;51.262;17.058;2023-05-14T05:44:15;99874.94;;;17.24
51561;BMP280;37654;51.262;17.058;2023-05-14T05:46:40;99876.31;;;17.32
51561;BMP280;37654;51.262;17.058;2023-05-14T05:49:06;99865.13;;;17.29
51561;BMP280;37654;51.262;17.058;2023-05-14T05:51:31;99854.56;;;16.74
51561;BMP280;37654;51.262;17.058;2023-05-14T05:53:57;99860.97;;;16.87
51561;BMP280;37654;51.262;17.058;2023-05-14T05:56:22;99857.28;;;16.53
51561;BMP280;37654;51.262;17.058;2023-05-14T05:58:48;99865.63;;;16.81
51561;BMP280;37654;51.262;17.058;2023-05-14T06:01:13;99873.50;;;16.61
51561;BMP280;37654;51.262;17.058;2023-05-14T06:03:39;99871.28;;;16.72
51561;BMP280;37654;51.262;17.058;2023-05-14T06:06:04;99869.91;;;17.01
51561;BMP280;37654;51.262;17.058;2023-05-14T06:08:30;99875.38;;;16.77
51561;BMP280;37654;51.262;17.058;2023-05-14T06:10:56;99870.25;;;16.37
51561;BMP280;37654;51.262;17.058;2023-05-14T06:13:21;99864.47;;;16.68
51561;BMP280;37654;51.262;17.058;2023-05-14T06:15:47;99867.97;;;17.25
51561;BMP280;37654;51.262;17.058;2023-05-14T06:18:12;99862.75;;;17.05
51561;BMP280;37654;51.262;17.058;2023-05-14T06:20:37;99858.03;;;17.49
51561;BMP280;37654;51.262;17.058;2023-05-14T06:23:04;99871.06;;;18.20
51561;BMP280;37654;51.262;17.058;2023-05-14T06:25:30;99870.13;;;18.38
51561;BMP280;37654;51.262;17.058;2023-05-14T06:27:55;99878.53;;;18.11
51561;BMP280;37654;51.262;17.058;2023-05-14T06:30:20;99862.91;;;18.09
51561;BMP280;37654;51.262;17.058;2023-05-14T06:32:46;99858.28;;;17.96
51561;BMP280;37654;51.262;17.058;2023-05-14T06:35:11;99864.03;;;18.21
51561;BMP280;37654;51.262;17.058;2023-05-14T06:37:37;99860.00;;;17.62
51561;BMP280;37654;51.262;17.058;2023-05-14T06:40:02;99857.94;;;17.69
51561;BMP280;37654;51.262;17.058;2023-05-14T06:42:28;99853.56;;;17.51
51561;BMP280;37654;51.262;17.058;2023-05-14T06:44:53;99856.56;;;17.44
51561;BMP280;37654;51.262;17.058;2023-05-14T06:47:20;99864.19;;;18.18
51561;BMP280;37654;51.262;17.058;2023-05-14T06:49:45;99859.47;;;18.41
51561;BMP280;37654;51.262;17.058;2023-05-14T06:52:11;99859.69;;;18.20
51561;BMP280;37654;51.262;17.058;2023-05-14T06:54:36;99860.56;;;18.04
51561;BMP280;37654;51.262;17.058;2023-05-14T06:57:02;99857.47;;;18.12
51561;BMP280;37654;51.262;17.058;2023-05-14T06:59:27;99860.59;;;18.69
51561;BMP280;37654;51.262;17.058;2023-05-14T07:01:53;99857.00;;;18.55
51561;BMP280;37654;51.262;17.058;2023-05-14T07:04:18;99856.81;;;18.91
51561;BMP280;37654;51.262;17.058;2023-05-14T07:06:44;99856.00;;;19.67
51561;BMP280;37654;51.262;17.058;2023-05-14T07:09:09;99839.06;;;19.72
51561;BMP280;37654;51.262;17.058;2023-05-14T07:11:35;99848.88;;;19.08
51561;BMP280;37654;51.262;17.058;2023-05-14T07:14:00;99846.22;;;18.76
51561;BMP280;37654;51.262;17.058;2023-05-14T07:16:25;99841.59;;;19.13
51561;BMP280;37654;51.262;17.058;2023-05-14T07:18:51;99834.06;;;19.07
51561;BMP280;37654;51.262;17.058;2023-05-14T07:21:17;99829.22;;;18.99
51561;BMP280;37654;51.262;17.058;2023-05-14T07:23:42;99832.38;;;19.51
51561;BMP280;37654;51.262;17.058;2023-05-14T07:26:07;99835.50;;;19.43
51561;BMP280;37654;51.262;17.058;2023-05-14T07:28:33;99823.47;;;19.84
51561;BMP280;37654;51.262;17.058;2023-05-14T07:30:59;99833.06;;;19.55
51561;BMP280;37654;51.262;17.058;2023-05-14T07:33:25;99821.97;;;19.19
51561;BMP280;37654;51.262;17.058;2023-05-14T07:35:51;99818.53;;;19.94
51561;BMP280;37654;51.262;17.058;2023-05-14T07:38:17;99830.59;;;20.40
51561;BMP280;37654;51.262;17.058;2023-05-14T07:40:43;99840.94;;;20.57
51561;BMP280;37654;51.262;17.058;2023-05-14T07:43:09;99829.06;;;20.79
51561;BMP280;37654;51.262;17.058;2023-05-14T07:45:38;99848.34;;;20.93
51561;BMP280;37654;51.262;17.058;2023-05-14T07:48:04;99838.06;;;20.32
51561;BMP280;37654;51.262;17.058;2023-05-14T07:50:29;99832.63;;;20.35
51561;BMP280;37654;51.262;17.058;2023-05-14T07:52:55;99827.72;;;20.58
51561;BMP280;37654;51.262;17.058;2023-05-14T07:55:21;99829.50;;;20.85
51561;BMP280;37654;51.262;17.058;2023-05-14T07:57:46;99835.16;;;20.93
51561;BMP280;37654;51.262;17.058;2023-05-14T08:00:12;99813.34;;;21.33
51561;BMP280;37654;51.262;17.058;2023-05-14T08:02:38;99831.97;;;22.58
51561;BMP280;37654;51.262;17.058;2023-05-14T08:05:04;99848.91;;;23.88
51561;BMP280;37654;51.262;17.058;2023-05-14T08:07:29;99857.75;;;27.58
51561;BMP280;37654;51.262;17.058;2023-05-14T08:09:55;99868.13;;;30.18
51561;BMP280;37654;51.262;17.058;2023-05-14T08:12:20;99884.13;;;30.69
51561;BMP280;37654;51.262;17.058;2023-05-14T08:14:46;99874.63;;;29.53
51561;BMP280;37654;51.262;17.058;2023-05-14T08:17:11;99860.97;;;30.09
51561;BMP280;37654;51.262;17.058;2023-05-14T08:19:37;99845.09;;;29.90
51561;BMP280;37654;51.262;17.058;2023-05-14T08:22:03;99870.38;;;31.65
51561;BMP280;37654;51.262;17.058;2023-05-14T08:24:28;99848.72;;;30.33
51561;BMP280;37654;51.262;17.058;2023-05-14T08:26:54;99841.00;;;31.32
51561;BMP280;37654;51.262;17.058;2023-05-14T08:29:20;99847.25;;;30.73
51561;BMP280;37654;51.262;17.058;2023-05-14T08:31:46;99825.47;;;31.35
51561;BMP280;37654;51.262;17.058;2023-05-14T08:34:11;99827.00;;;31.45
51561;BMP280;37654;51.262;17.058;2023-05-14T08:36:37;99832.06;;;30.56
51561;BMP280;37654;51.262;17.058;2023-05-14T08:39:03;99823.13;;;29.26
51561;BMP280;37654;51.262;17.058;2023-05-14T08:41:28;99822.03;;;30.92
51561;BMP280;37654;51.262;17.058;2023-05-14T08:44:16;99804.63;;;30.88
51561;BMP280;37654;51.262;17.058;2023-05-14T08:46:43;99810.69;;;32.36
51561;BMP280;37654;51.262;17.058;2023-05-14T08:51:51;99811.88;;;33.42
51561;BMP280;37654;51.262;17.058;2023-05-14T08:54:18;99831.19;;;34.58
51561;BMP280;37654;51.262;17.058;2023-05-14T08:56:46;99814.88;;;32.78
51561;BMP280;37654;51.262;17.058;2023-05-14T08:59:12;99790.47;;;34.24
51561;BMP280;37654;51.262;17.058;2023-05-14T09:01:40;99793.78;;;32.75
51561;BMP280;37654;51.262;17.058;2023-05-14T09:04:08;99771.56;;;33.20
51561;BMP280;37654;51.262;17.058;2023-05-14T09:06:36;99811.84;;;34.18
51561;BMP280;37654;51.262;17.058;2023-05-14T09:09:03;99788.81;;;33.63
51561;BMP280;37654;51.262;17.058;2023-05-14T09:11:29;99786.66;;;33.13
51561;BMP280;37654;51.262;17.058;2023-05-14T09:13:54;99777.69;;;32.83
51561;BMP280;37654;51.262;17.058;2023-05-14T09:16:20;99782.25;;;33.28
51561;BMP280;37654;51.262;17.058;2023-05-14T09:18:46;99767.72;;;33.07
51561;BMP280;37654;51.262;17.058;2023-05-14T09:21:14;99768.63;;;34.27
51561;BMP280;37654;51.262;17.058;2023-05-14T09:23:43;99767.09;;;35.69
51561;BMP280;37654;51.262;17.058;2023-05-14T09:26:09;99754.25;;;35.22
51561;BMP280;37654;51.262;17.058;2023-05-14T09:28:39;99753.09;;;35.02
51561;BMP280;37654;51.262;17.058;2023-05-14T09:31:05;99761.22;;;35.80
51561;BMP280;37654;51.262;17.058;2023-05-14T09:33:31;99751.06;;;35.32
51561;BMP280;37654;51.262;17.058;2023-05-14T09:36:00;99739.88;;;35.15
51561;BMP280;37654;51.262;17.058;2023-05-14T09:38:30;99745.28;;;37.67
51561;BMP280;37654;51.262;17.058;2023-05-14T09:40:57;99749.97;;;36.11
51561;BMP280;37654;51.262;17.058;2023-05-14T09:43:22;99726.94;;;38.86
51561;BMP280;37654;51.262;17.058;2023-05-14T09:45:48;99750.22;;;40.90
51561;BMP280;37654;51.262;17.058;2023-05-14T09:48:13;99745.31;;;40.81
51561;BMP280;37654;51.262;17.058;2023-05-14T09:50:43;99727.53;;;35.34
51561;BMP280;37654;51.262;17.058;2023-05-14T09:53:10;99705.53;;;38.46
51561;BMP280;37654;51.262;17.058;2023-05-14T09:55:36;99717.41;;;40.26
51561;BMP280;37654;51.262;17.058;2023-05-14T09:58:03;99700.81;;;37.63
51561;BMP280;37654;51.262;17.058;2023-05-14T10:00:30;99694.38;;;37.18
51561;BMP280;37654;51.262;17.058;2023-05-14T10:02:57;99690.66;;;36.52
51561;BMP280;37654;51.262;17.058;2023-05-14T10:05:22;99685.81;;;34.81
51561;BMP280;37654;51.262;17.058;2023-05-14T10:07:50;99689.84;;;36.58
51561;BMP280;37654;51.262;17.058;2023-05-14T10:10:20;99683.47;;;37.32
51561;BMP280;37654;51.262;17.058;2023-05-14T10:13:01;99698.13;;;36.84
51561;BMP280;37654;51.262;17.058;2023-05-14T10:15:39;99670.75;;;34.72
51561;BMP280;37654;51.262;17.058;2023-05-14T10:18:12;99677.25;;;36.38
51561;BMP280;37654;51.262;17.058;2023-05-14T10:20:40;99680.56;;;36.40
51561;BMP280;37654;51.262;17.058;2023-05-14T10:23:06;99678.91;;;39.37
51561;BMP280;37654;51.262;17.058;2023-05-14T10:25:35;99642.97;;;31.08
51561;BMP280;37654;51.262;17.058;2023-05-14T10:28:02;99651.16;;;30.41
51561;BMP280;37654;51.262;17.058;2023-05-14T10:30:27;99661.31;;;35.54
51561;BMP280;37654;51.262;17.058;2023-05-14T10:33:07;99657.91;;;35.87
51561;BMP280;37654;51.262;17.058;2023-05-14T10:35:59;99658.97;;;36.88
51561;BMP280;37654;51.262;17.058;2023-05-14T10:38:27;99643.84;;;37.46
51561;BMP280;37654;51.262;17.058;2023-05-14T10:40:57;99643.13;;;39.66
51561;BMP280;37654;51.262;17.058;2023-05-14T10:43:25;99679.22;;;37.70
51561;BMP280;37654;51.262;17.058;2023-05-14T10:45:52;99663.69;;;36.86
51561;BMP280;37654;51.262;17.058;2023-05-14T10:48:18;99642.06;;;36.73
51561;BMP280;37654;51.262;17.058;2023-05-14T10:50:46;99641.50;;;38.21
51561;BMP280;37654;51.262;17.058;2023-05-14T10:53:12;99628.75;;;31.95
51561;BMP280;37654;51.262;17.058;2023-05-14T10:55:38;99618.72;;;29.34
51561;BMP280;37654;51.262;17.058;2023-05-14T10:58:04;99594.97;;;28.44
51561;BMP280;37654;51.262;17.058;2023-05-14T11:00:32;99579.25;;;26.06
51561;BMP280;37654;51.262;17.058;2023-05-14T11:02:58;99578.50;;;24.40
51561;BMP280;37654;51.262;17.058;2023-05-14T11:05:24;99556.38;;;23.87
51561;BMP280;37654;51.262;17.058;2023-05-14T11:07:54;99555.47;;;24.62
51561;BMP280;37654;51.262;17.058;2023-05-14T11:10:22;99562.84;;;24.48
51561;BMP280;37654;51.262;17.058;2023-05-14T11:12:50;99561.56;;;23.55
51561;BMP280;37654;51.262;17.058;2023-05-14T11:15:18;99556.59;;;24.49
51561;BMP280;37654;51.262;17.058;2023-05-14T11:17:44;99547.47;;;25.46
51561;BMP280;37654;51.262;17.058;2023-05-14T11:20:11;99568.13;;;24.59
51561;BMP280;37654;51.262;17.058;2023-05-14T11:22:38;99569.88;;;23.50
51561;BMP280;37654;51.262;17.058;2023-05-14T11:25:05;99565.72;;;23.69
51561;BMP280;37654;51.262;17.058;2023-05-14T11:27:33;99559.94;;;23.31
51561;BMP280;37654;51.262;17.058;2023-05-14T11:29:58;99549.38;;;24.08
51561;BMP280;37654;51.262;17.058;2023-05-14T11:32:25;99572.72;;;24.35
51561;BMP280;37654;51.262;17.058;2023-05-14T11:34:51;99552.50;;;24.45
51561;BMP280;37654;51.262;17.058;2023-05-14T11:37:17;99560.47;;;24.23
51561;BMP280;37654;51.262;17.058;2023-05-14T11:39:54;99560.16;;;23.61
51561;BMP280;37654;51.262;17.058;2023-05-14T11:42:20;99558.50;;;24.04
51561;BMP280;37654;51.262;17.058;2023-05-14T11:44:48;99550.81;;;23.90
51561;BMP280;37654;51.262;17.058;2023-05-14T11:47:15;99555.84;;;23.71
51561;BMP280;37654;51.262;17.058;2023-05-14T11:49:41;99546.81;;;23.52
51561;BMP280;37654;51.262;17.058;2023-05-14T11:52:08;99530.44;;;23.03
51561;BMP280;37654;51.262;17.058;2023-05-14T11:54:36;99527.03;;;22.31
51561;BMP280;37654;51.262;17.058;2023-05-14T11:57:07;99538.75;;;23.09
51561;BMP280;37654;51.262;17.058;2023-05-14T11:59:33;99541.31;;;23.32
51561;BMP280;37654;51.262;17.058;2023-05-14T12:01:59;99538.50;;;23.46
51561;BMP280;37654;51.262;17.058;2023-05-14T12:04:24;99533.22;;;23.46
51561;BMP280;37654;51.262;17.058;2023-05-14T12:06:51;99533.03;;;23.81
51561;BMP280;37654;51.262;17.058;2023-05-14T12:09:18;99525.09;;;23.60
51561;BMP280;37654;51.262;17.058;2023-05-14T12:11:44;99530.28;;;23.04
51561;BMP280;37654;51.262;17.058;2023-05-14T12:14:18;99532.41;;;22.88
51561;BMP280;37654;51.262;17.058;2023-05-14T12:16:45;99524.09;;;22.82
51561;BMP280;37654;51.262;17.058;2023-05-14T12:19:13;99514.63;;;23.69
51561;BMP280;37654;51.262;17.058;2023-05-14T12:21:39;99523.56;;;23.00
51561;BMP280;37654;51.262;17.058;2023-05-14T12:24:12;99518.59;;;23.63
51561;BMP280;37654;51.262;17.058;2023-05-14T12:26:38;99522.22;;;23.84
51561;BMP280;37654;51.262;17.058;2023-05-14T12:29:04;99521.72;;;23.79
51561;BMP280;37654;51.262;17.058;2023-05-14T12:31:34;99517.09;;;23.38
51561;BMP280;37654;51.262;17.058;2023-05-14T12:34:04;99512.88;;;23.02
51561;BMP280;37654;51.262;17.058;2023-05-14T12:36:29;99527.34;;;23.19
51561;BMP280;37654;51.262;17.058;2023-05-14T12:39:01;99516.19;;;23.82
51561;BMP280;37654;51.262;17.058;2023-05-14T12:41:31;99509.69;;;23.97
51561;BMP280;37654;51.262;17.058;2023-05-14T12:43:57;99504.03;;;23.69
51561;BMP280;37654;51.262;17.058;2023-05-14T12:46:24;99486.44;;;23.35
51561;BMP280;37654;51.262;17.058;2023-05-14T12:48:50;99498.31;;;22.85
51561;BMP280;37654;51.262;17.058;2023-05-14T12:51:15;99489.66;;;22.60
51561;BMP280;37654;51.262;17.058;2023-05-14T12:53:41;99486.78;;;22.63
51561;BMP280;37654;51.262;17.058;2023-05-14T12:56:06;99485.59;;;22.44
51561;BMP280;37654;51.262;17.058;2023-05-14T12:58:32;99486.69;;;22.06
51561;BMP280;37654;51.262;17.058;2023-05-14T13:00:57;99483.88;;;21.72
51561;BMP280;37654;51.262;17.058;2023-05-14T13:03:23;99499.22;;;21.17
51561;BMP280;37654;51.262;17.058;2023-05-14T13:05:50;99492.09;;;21.31
51561;BMP280;37654;51.262;17.058;2023-05-14T13:08:16;99472.50;;;21.47
51561;BMP280;37654;51.262;17.058;2023-05-14T13:10:44;99484.50;;;21.76
51561;BMP280;37654;51.262;17.058;2023-05-14T13:13:10;99490.41;;;21.79
51561;BMP280;37654;51.262;17.058;2023-05-14T13:15:36;99475.91;;;21.97
51561;BMP280;37654;51.262;17.058;2023-05-14T13:18:02;99462.31;;;21.91
51561;BMP280;37654;51.262;17.058;2023-05-14T13:20:28;99479.25;;;21.51
51561;BMP280;37654;51.262;17.058;2023-05-14T13:22:55;99475.63;;;21.15
51561;BMP280;37654;51.262;17.058;2023-05-14T13:25:21;99476.50;;;20.78
51561;BMP280;37654;51.262;17.058;2023-05-14T13:27:46;99471.59;;;21.10
51561;BMP280;37654;51.262;17.058;2023-05-14T13:30:16;99474.03;;;21.01
51561;BMP280;37654;51.262;17.058;2023-05-14T13:32:41;99469.09;;;21.21
51561;BMP280;37654;51.262;17.058;2023-05-14T13:35:07;99471.72;;;21.21
51561;BMP280;37654;51.262;17.058;2023-05-14T13:37:33;99467.41;;;21.08
51561;BMP280;37654;51.262;17.058;2023-05-14T13:39:58;99465.09;;;21.15
51561;BMP280;37654;51.262;17.058;2023-05-14T13:42:24;99467.00;;;21.63
51561;BMP280;37654;51.262;17.058;2023-05-14T13:44:49;99466.28;;;21.48
51561;BMP280;37654;51.262;17.058;2023-05-14T13:47:15;99448.63;;;21.86
51561;BMP280;37654;51.262;17.058;2023-05-14T13:49:40;99451.25;;;22.10
51561;BMP280;37654;51.262;17.058;2023-05-14T13:52:06;99451.75;;;22.03
51561;BMP280;37654;51.262;17.058;2023-05-14T13:54:31;99434.78;;;22.30
51561;BMP280;37654;51.262;17.058;2023-05-14T13:56:57;99438.66;;;22.37
51561;BMP280;37654;51.262;17.058;2023-05-14T13:59:22;99430.84;;;22.12
51561;BMP280;37654;51.262;17.058;2023-05-14T14:01:48;99449.84;;;22.17
51561;BMP280;37654;51.262;17.058;2023-05-14T14:04:14;99446.47;;;21.55